createdAt,value
2023-05-19T00:01:44.630Z,61.88
2023-05-19T00:04:14.672Z,61.96
2023-05-19T00:06:44.855Z,61.84
2023-05-19T00:09:13.036Z,61.90
2023-05-19T00:11:41.320Z,62.03
2023-05-19T00:14:10.244Z,62.05
2023-05-19T00:16:38.940Z,62.21
2023-05-19T00:19:10.332Z,65.89
2023-05-19T00:21:39.083Z,66.13
2023-05-19T00:24:07.460Z,60.57
2023-05-19T00:26:37.899Z,55.33
2023-05-19T00:29:06.132Z,54.02
2023-05-19T00:31:34.257Z,54.50
2023-05-19T00:34:02.372Z,55.49
2023-05-19T00:36:31.112Z,55.83
2023-05-19T00:38:58.948Z,56.39
2023-05-19T00:41:26.790Z,56.95
2023-05-19T00:43:54.963Z,57.55
2023-05-19T00:46:23.131Z,58.31
2023-05-19T00:48:51.033Z,58.75
2023-05-19T00:51:19.042Z,59.80
2023-05-19T00:53:49.323Z,59.74
2023-05-19T00:56:18.662Z,60.69
2023-05-19T00:58:47.123Z,61.08
2023-05-19T01:01:17.406Z,61.80
2023-05-19T01:03:47.284Z,65.62
2023-05-19T01:06:15.462Z,66.19
2023-05-19T01:08:43.510Z,61.89
2023-05-19T01:11:11.367Z,57.03
2023-05-19T01:13:41.814Z,56.05
2023-05-19T01:16:27.307Z,56.97
2023-05-19T01:19:32.136Z,57.71
2023-05-19T01:22:27.102Z,58.25
2023-05-19T01:25:13.231Z,58.84
2023-05-19T01:28:15.758Z,59.16
2023-05-19T01:30:46.314Z,59.02
2023-05-19T01:33:17.835Z,59.52
2023-05-19T01:35:47.691Z,60.09
2023-05-19T01:38:17.705Z,60.61
2023-05-19T01:40:46.386Z,61.10
2023-05-19T01:43:19.602Z,61.44
2023-05-19T01:45:48.167Z,61.53
2023-05-19T01:48:16.377Z,64.59
2023-05-19T01:50:46.909Z,66.14
2023-05-19T01:53:14.736Z,62.90
2023-05-19T01:55:48.415Z,59.29
2023-05-19T01:58:31.340Z,55.11
2023-05-19T02:01:23.629Z,54.17
2023-05-19T02:04:13.524Z,54.78
2023-05-19T02:06:59.570Z,55.84
2023-05-19T02:09:27.297Z,56.80
2023-05-19T02:11:58.804Z,57.51
2023-05-19T02:14:38.108Z,58.03
2023-05-19T02:17:06.621Z,58.63
2023-05-19T02:19:38.254Z,59.08
2023-05-19T02:22:06.881Z,59.31
2023-05-19T02:24:34.703Z,59.82
2023-05-19T02:27:02.678Z,60.31
2023-05-19T02:29:30.511Z,60.47
2023-05-19T02:31:58.778Z,60.93
2023-05-19T02:34:26.930Z,61.16
2023-05-19T02:36:56.687Z,61.45
2023-05-19T02:39:24.587Z,61.98
2023-05-19T02:41:52.670Z,64.84
2023-05-19T02:44:20.532Z,66.04
2023-05-19T02:46:48.545Z,61.37
2023-05-19T02:49:16.477Z,56.68
2023-05-19T02:51:44.282Z,55.18
2023-05-19T02:54:12.449Z,55.72
2023-05-19T02:56:40.325Z,56.41
2023-05-19T02:59:08.285Z,56.93
2023-05-19T03:01:37.813Z,57.22
2023-05-19T03:04:06.000Z,58.09
2023-05-19T03:06:35.137Z,58.81
2023-05-19T03:09:03.145Z,59.16
2023-05-19T03:11:31.012Z,59.71
2023-05-19T03:13:58.947Z,60.25
2023-05-19T03:16:28.229Z,60.66
2023-05-19T03:18:56.389Z,61.29
2023-05-19T03:21:24.651Z,61.62
2023-05-19T03:23:52.745Z,61.93
2023-05-19T03:26:20.572Z,65.23
2023-05-19T03:28:48.382Z,65.56
2023-05-19T03:31:16.646Z,60.64
2023-05-19T03:33:44.724Z,55.19
2023-05-19T03:36:13.615Z,53.93
2023-05-19T03:38:41.506Z,54.63
2023-05-19T03:41:09.498Z,55.60
2023-05-19T03:43:37.308Z,56.48
2023-05-19T03:46:06.357Z,57.06
2023-05-19T03:49:06.836Z,58.10
2023-05-19T03:51:53.093Z,58.56
2023-05-19T03:54:35.801Z,59.10
2023-05-19T03:57:03.761Z,59.51
2023-05-19T03:59:32.050Z,59.91
2023-05-19T04:01:59.906Z,60.05
2023-05-19T04:04:28.502Z,60.49
2023-05-19T04:06:56.504Z,60.51
2023-05-19T04:09:24.344Z,60.79
2023-05-19T04:11:52.324Z,61.20
2023-05-19T04:14:20.426Z,61.48
2023-05-19T04:16:48.259Z,61.80
2023-05-19T04:19:16.272Z,64.15
2023-05-19T04:21:44.085Z,62.98
2023-05-19T04:24:11.978Z,62.63
2023-05-19T04:26:42.358Z,62.08
2023-05-19T04:29:10.747Z,57.16
2023-05-19T04:31:41.187Z,55.27
2023-05-19T04:34:10.074Z,55.79
2023-05-19T04:36:38.476Z,56.63
2023-05-19T04:39:09.703Z,57.97
2023-05-19T04:41:40.608Z,58.41
2023-05-19T04:44:09.520Z,59.23
2023-05-19T04:46:38.117Z,59.97
2023-05-19T04:49:06.338Z,60.31
2023-05-19T04:51:35.883Z,60.88
2023-05-19T04:54:04.119Z,60.85
2023-05-19T04:56:32.019Z,61.34
2023-05-19T04:59:00.009Z,61.64
2023-05-19T05:01:28.258Z,61.54
2023-05-19T05:03:59.033Z,61.47
2023-05-19T05:06:30.813Z,61.43
2023-05-19T05:09:04.163Z,61.54
2023-05-19T05:11:33.330Z,61.62
2023-05-19T05:14:02.318Z,61.97
2023-05-19T05:16:30.753Z,61.59
2023-05-19T05:18:59.375Z,61.61
2023-05-19T05:21:29.144Z,61.55
2023-05-19T05:23:57.292Z,61.47
2023-05-19T05:26:30.513Z,60.91
2023-05-19T05:28:58.466Z,60.51
2023-05-19T05:31:26.586Z,60.15
2023-05-19T05:33:54.580Z,59.93
2023-05-19T05:36:24.688Z,59.46
2023-05-19T05:38:52.531Z,58.86
2023-05-19T05:41:21.800Z,58.94
2023-05-19T05:43:50.166Z,59.28
2023-05-19T05:46:18.974Z,59.13
2023-05-19T05:48:48.219Z,59.09
2023-05-19T05:51:16.400Z,58.61
2023-05-19T05:53:45.097Z,59.12
2023-05-19T05:56:14.317Z,59.02
2023-05-19T05:58:50.545Z,58.51
2023-05-19T06:01:18.426Z,58.22
2023-05-19T06:03:46.520Z,58.41
2023-05-19T06:06:18.575Z,58.63
2023-05-19T06:08:46.503Z,58.32
2023-05-19T06:11:14.359Z,58.29
2023-05-19T06:13:42.492Z,58.30
2023-05-19T06:16:14.313Z,58.24
2023-05-19T06:18:45.924Z,58.55
2023-05-19T06:21:14.085Z,58.33
2023-05-19T06:23:42.574Z,58.55
2023-05-19T06:26:11.457Z,58.18
2023-05-19T06:28:39.358Z,57.95
2023-05-19T06:31:07.381Z,57.69
2023-05-19T06:34:04.648Z,57.13
2023-05-19T06:36:33.201Z,57.06
2023-05-19T06:39:02.689Z,57.05
2023-05-19T06:41:32.146Z,57.02
2023-05-19T06:44:00.137Z,57.08
2023-05-19T06:46:31.893Z,56.84
2023-05-19T06:48:59.933Z,56.75
2023-05-19T06:51:28.863Z,56.90
2023-05-19T06:53:57.468Z,56.37
2023-05-19T06:56:25.735Z,56.65
2023-05-19T06:58:53.543Z,56.56
2023-05-19T07:01:22.342Z,55.79
2023-05-19T07:03:54.235Z,54.87
2023-05-19T07:06:22.417Z,55.09
2023-05-19T07:08:51.585Z,55.04
2023-05-19T07:11:20.288Z,54.99
2023-05-19T07:13:48.878Z,55.07
2023-05-19T07:16:21.429Z,55.69
2023-05-19T07:18:49.307Z,55.83
2023-05-19T07:21:17.329Z,56.31
2023-05-19T07:23:45.254Z,56.30
2023-05-19T07:26:13.351Z,56.63
2023-05-19T07:28:42.780Z,57.57
2023-05-19T07:31:10.613Z,57.51
2023-05-19T07:33:38.439Z,57.52
2023-05-19T07:36:06.709Z,57.98
2023-05-19T07:38:34.981Z,58.11
2023-05-19T07:41:03.248Z,58.58
2023-05-19T07:43:31.592Z,58.16
2023-05-19T07:45:59.456Z,58.84
2023-05-19T07:48:31.910Z,58.52
2023-05-19T07:51:03.411Z,58.20
2023-05-19T07:53:31.211Z,58.37
2023-05-19T07:55:59.050Z,58.25
2023-05-19T07:58:26.871Z,57.85
2023-05-19T13:02:56.067Z,55.81
2023-05-19T13:05:24.847Z,56.36
2023-05-19T13:08:05.734Z,56.42
2023-05-19T13:10:35.172Z,56.64
2023-05-19T13:13:04.061Z,56.79
2023-05-19T13:15:38.063Z,56.90
2023-05-19T13:18:08.936Z,57.12
2023-05-19T13:20:38.592Z,57.49
2023-05-19T13:23:06.704Z,57.39
2023-05-19T13:25:34.752Z,57.97
2023-05-19T13:28:05.649Z,57.82
2023-05-19T13:30:38.702Z,57.69
2023-05-19T13:33:06.944Z,57.93
2023-05-19T13:35:37.365Z,57.86
2023-05-19T13:38:12.165Z,57.96
2023-05-19T13:40:40.446Z,58.25
2023-05-19T13:43:10.247Z,58.52
2023-05-19T13:45:38.233Z,58.37
2023-05-19T13:48:07.937Z,58.47
2023-05-19T13:50:36.141Z,58.46
2023-05-19T13:53:04.074Z,58.19
2023-05-19T13:55:32.971Z,58.38
2023-05-19T13:58:03.438Z,58.49
2023-05-19T14:00:32.193Z,58.74
2023-05-19T14:03:00.622Z,59.11
2023-05-19T14:05:29.186Z,59.04
2023-05-19T14:07:58.070Z,59.12
2023-05-19T14:10:26.077Z,59.34
2023-05-19T14:13:18.391Z,59.18
2023-05-19T14:15:42.072Z,59.27
2023-05-19T14:18:09.959Z,59.38
2023-05-19T14:20:37.917Z,59.50
2023-05-19T14:23:05.922Z,59.17
2023-05-19T14:25:33.737Z,59.17
2023-05-19T14:28:01.734Z,59.17
2023-05-19T14:30:29.729Z,59.30
2023-05-19T14:32:57.658Z,59.17
2023-05-19T14:35:26.092Z,59.07
2023-05-19T14:37:54.043Z,58.94
2023-05-19T14:40:21.928Z,58.86
2023-05-19T14:42:49.710Z,58.66
2023-05-19T14:45:17.578Z,58.53
2023-05-19T14:47:46.695Z,57.80
2023-05-19T14:50:15.634Z,57.50
2023-05-19T14:52:43.400Z,57.60
2023-05-19T14:55:11.691Z,57.10
2023-05-19T14:57:39.570Z,57.09
2023-05-19T15:00:10.293Z,57.03
2023-05-19T15:02:38.325Z,56.92
2023-05-19T15:05:06.948Z,56.84
2023-05-19T15:07:34.788Z,57.06
2023-05-19T15:10:04.327Z,57.22
2023-05-19T15:12:32.222Z,57.31
2023-05-19T15:15:00.170Z,57.55
2023-05-19T15:17:30.950Z,57.67
2023-05-19T15:20:10.006Z,57.89
2023-05-19T15:22:38.081Z,58.30
2023-05-19T15:25:06.637Z,58.75
2023-05-19T15:27:36.658Z,58.66
2023-05-19T15:30:05.564Z,58.87
2023-05-19T15:32:34.000Z,59.00
2023-05-19T15:35:01.833Z,58.84
2023-05-19T15:37:29.737Z,59.15
2023-05-19T15:39:57.859Z,59.42
2023-05-19T15:42:26.143Z,59.31
2023-05-19T15:44:54.616Z,59.57
2023-05-19T15:47:22.560Z,59.25
2023-05-19T15:49:50.555Z,59.31
2023-05-19T15:52:18.504Z,59.10
2023-05-19T15:54:47.790Z,59.26
2023-05-19T15:57:15.676Z,59.30
2023-05-19T15:59:43.512Z,59.54
2023-05-19T16:02:11.551Z,59.59
2023-05-19T16:04:39.813Z,59.37
2023-05-19T16:07:07.579Z,59.56
2023-05-19T16:09:35.409Z,59.49
2023-05-19T16:12:03.507Z,59.45
2023-05-19T16:14:36.528Z,59.91
2023-05-19T16:17:11.044Z,59.75
2023-05-19T16:19:39.333Z,59.25
2023-05-19T16:22:07.223Z,59.46
2023-05-19T16:24:35.048Z,59.17
2023-05-19T16:27:05.120Z,59.18
2023-05-19T16:29:32.989Z,59.51
2023-05-19T16:32:00.778Z,59.42
2023-05-19T16:34:29.981Z,59.41
2023-05-19T16:36:58.842Z,59.73
2023-05-19T16:39:26.732Z,59.90
2023-05-19T16:41:54.495Z,59.99
2023-05-19T16:44:22.371Z,60.10
2023-05-19T16:46:50.372Z,60.11
2023-05-19T16:49:18.444Z,59.99
2023-05-19T16:51:47.548Z,60.37
2023-05-19T16:54:16.868Z,60.81
2023-05-19T16:56:44.614Z,60.92
2023-05-19T16:59:12.380Z,61.04
2023-05-19T17:01:40.312Z,61.21
2023-05-19T17:04:08.361Z,61.43
2023-05-19T17:06:36.387Z,61.36
2023-05-19T17:09:04.279Z,61.51
2023-05-19T17:11:32.211Z,61.33
2023-05-19T17:14:00.243Z,61.61
2023-05-19T17:16:28.094Z,61.26
2023-05-19T17:18:56.218Z,61.40
2023-05-19T17:21:24.474Z,61.45
2023-05-19T17:23:52.298Z,61.71
2023-05-19T17:26:20.126Z,61.98
2023-05-19T17:28:48.349Z,61.92
2023-05-19T17:31:16.286Z,61.81
2023-05-19T17:33:44.317Z,62.19
2023-05-19T17:36:12.185Z,62.14
2023-05-19T17:38:40.591Z,62.17
2023-05-19T17:41:13.963Z,62.16
2023-05-19T17:43:41.965Z,61.97
2023-05-19T17:46:09.856Z,62.32
2023-05-19T17:48:37.941Z,65.57
2023-05-19T17:51:09.006Z,66.05
2023-05-19T17:53:37.175Z,64.13
2023-05-19T17:56:08.851Z,61.49
2023-05-19T17:58:36.942Z,55.79
2023-05-19T18:01:05.321Z,53.49
2023-05-19T18:03:33.658Z,54.07
2023-05-19T18:06:01.739Z,54.68
2023-05-19T18:08:31.329Z,55.46
2023-05-19T18:10:59.651Z,56.10
2023-05-19T18:13:27.421Z,56.50
2023-05-19T18:15:55.536Z,57.38
2023-05-19T18:18:23.355Z,57.89
2023-05-19T18:20:51.148Z,58.30
2023-05-19T18:23:20.433Z,58.67
2023-05-19T18:25:50.589Z,59.04
2023-05-19T18:28:18.463Z,59.78
2023-05-19T18:30:50.221Z,60.05
2023-05-19T18:33:18.036Z,60.73
2023-05-19T18:35:46.391Z,61.28
2023-05-19T18:38:14.247Z,61.37
2023-05-19T18:40:45.371Z,61.62
2023-05-19T18:43:13.143Z,61.70
2023-05-19T18:45:41.053Z,61.98
2023-05-19T18:48:08.979Z,63.68
2023-05-19T18:50:36.991Z,66.80
2023-05-19T18:53:04.829Z,63.27
2023-05-19T18:55:32.658Z,58.00
2023-05-19T18:58:01.327Z,55.69
2023-05-19T19:00:29.194Z,56.20
2023-05-19T19:02:57.011Z,56.96
2023-05-19T19:05:24.959Z,58.22
2023-05-19T19:07:53.350Z,58.48
2023-05-19T19:10:21.275Z,58.92
2023-05-19T19:12:49.162Z,59.74
2023-05-19T19:15:17.053Z,59.92
2023-05-19T19:17:45.670Z,60.18
2023-05-19T19:20:13.900Z,60.69
2023-05-19T19:22:41.832Z,61.33
2023-05-19T19:25:09.994Z,61.68
2023-05-19T19:27:37.896Z,65.08
2023-05-19T19:30:08.066Z,65.61
2023-05-19T19:32:36.263Z,61.01
2023-05-19T19:35:04.536Z,56.52
2023-05-19T19:37:32.536Z,55.34
2023-05-19T19:40:00.493Z,55.74
2023-05-19T19:42:28.267Z,56.28
2023-05-19T19:44:56.209Z,57.45
2023-05-19T19:47:24.179Z,57.83
2023-05-19T19:49:52.163Z,58.78
2023-05-19T19:52:19.968Z,59.53
2023-05-19T19:54:48.208Z,60.43
2023-05-19T19:57:17.471Z,60.77
2023-05-19T19:59:45.688Z,61.30
2023-05-19T20:02:14.134Z,64.98
2023-05-19T20:04:42.477Z,66.50
2023-05-19T20:07:10.436Z,63.51
2023-05-19T20:09:39.241Z,57.64
2023-05-19T20:12:07.401Z,55.96
2023-05-19T20:14:35.207Z,56.78
2023-05-19T20:17:03.877Z,57.76
2023-05-19T20:19:31.874Z,58.74
2023-05-19T20:22:00.128Z,59.44
2023-05-19T20:24:28.675Z,60.04
2023-05-19T20:27:00.004Z,60.37
2023-05-19T20:29:30.254Z,61.09
2023-05-19T20:32:01.939Z,61.66
2023-05-19T20:34:30.164Z,64.26
2023-05-19T20:36:58.325Z,66.07
2023-05-19T20:39:27.415Z,62.89
2023-05-19T20:41:55.582Z,60.40
2023-05-19T20:44:23.359Z,56.39
2023-05-19T20:46:51.403Z,56.28
2023-05-19T20:49:21.829Z,56.94
2023-05-19T20:51:50.522Z,58.02
2023-05-19T20:54:20.316Z,59.12
2023-05-19T20:56:48.545Z,59.81
2023-05-19T20:59:19.984Z,59.98
2023-05-19T21:01:49.586Z,60.78
2023-05-19T21:04:17.666Z,61.28
2023-05-19T21:06:46.211Z,61.70
2023-05-19T21:09:16.827Z,65.43
2023-05-19T21:11:48.485Z,66.44
2023-05-19T21:14:17.040Z,63.39
2023-05-19T21:16:48.295Z,61.61
2023-05-19T21:19:16.531Z,57.52
2023-05-19T21:21:45.016Z,56.46
2023-05-19T21:24:13.450Z,57.52
2023-05-19T21:26:42.287Z,58.16
2023-05-19T21:29:10.685Z,59.25
2023-05-19T21:31:38.603Z,60.49
2023-05-19T21:34:07.839Z,61.10
2023-05-19T21:36:36.024Z,65.10
2023-05-19T21:39:04.542Z,65.76
2023-05-19T21:41:32.950Z,61.62
2023-05-19T21:44:00.826Z,58.33
2023-05-19T21:46:29.559Z,56.36
2023-05-19T21:48:57.483Z,57.39
2023-05-19T21:51:25.379Z,58.41
2023-05-19T21:53:53.221Z,59.31
2023-05-19T21:56:21.149Z,59.95
2023-05-19T21:58:48.971Z,60.79
2023-05-19T22:01:16.794Z,61.34
2023-05-19T22:03:45.049Z,64.73
2023-05-19T22:06:12.894Z,66.54
2023-05-19T22:08:40.846Z,63.59
2023-05-19T22:11:09.186Z,61.24
2023-05-19T22:13:41.005Z,56.50
2023-05-19T22:16:08.983Z,55.55
2023-05-19T22:18:37.434Z,56.20
2023-05-19T22:21:05.311Z,57.90
2023-05-19T22:23:33.216Z,58.44
2023-05-19T22:26:01.289Z,59.31
2023-05-19T22:28:29.052Z,60.30
2023-05-19T22:30:57.023Z,64.25
2023-05-19T22:33:24.882Z,65.56
2023-05-19T22:35:52.696Z,62.92
2023-05-19T22:38:20.606Z,58.88
2023-05-19T22:40:49.695Z,56.58
2023-05-19T22:43:17.678Z,57.38
2023-05-19T22:45:45.837Z,58.37
2023-05-19T22:48:13.685Z,59.00
2023-05-19T22:50:41.512Z,60.47
2023-05-19T22:53:09.381Z,61.71
2023-05-19T22:55:37.180Z,64.22
2023-05-19T22:58:06.443Z,65.35
2023-05-19T23:00:34.298Z,62.70
2023-05-19T23:03:02.145Z,59.12
2023-05-19T23:05:30.164Z,56.10
2023-05-19T23:07:57.965Z,56.26
2023-05-19T23:10:25.773Z,57.08
2023-05-19T23:12:53.700Z,58.31
2023-05-19T23:15:21.584Z,59.16
2023-05-19T23:17:49.400Z,59.99
2023-05-19T23:20:17.342Z,60.89
2023-05-19T23:22:45.171Z,63.86
2023-05-19T23:25:13.061Z,65.36
2023-05-19T23:27:41.402Z,62.18
2023-05-19T23:30:09.607Z,60.45
2023-05-19T23:32:37.445Z,57.07
2023-05-19T23:35:16.322Z,56.55
2023-05-19T23:37:44.295Z,57.23
2023-05-19T23:40:12.681Z,58.63
2023-05-19T23:42:41.298Z,59.39
2023-05-19T23:45:09.940Z,60.37
2023-05-19T23:47:38.100Z,64.37
2023-05-19T23:50:06.542Z,65.21
2023-05-19T23:52:34.343Z,62.31
2023-05-19T23:55:03.561Z,58.63
2023-05-19T23:57:31.345Z,56.90
2023-05-19T23:59:59.851Z,58.29
